createdAt,value
2019-05-13T00:00:03.921Z,7.75
2019-05-13T00:05:09.487Z,7.66
2019-05-13T00:10:14.986Z,7.76
2019-05-13T00:15:20.621Z,7.76
2019-05-13T00:20:25.797Z,7.74
2019-05-13T00:25:33.611Z,7.67
2019-05-13T00:30:38.122Z,7.91
2019-05-13T00:35:44.197Z,7.79
2019-05-13T00:40:49.644Z,7.80
2019-05-13T00:45:54.717Z,7.62
2019-05-13T00:50:59.921Z,7.79
2019-05-13T00:56:05.552Z,7.71
2019-05-13T01:01:11.297Z,7.81
2019-05-13T01:06:16.757Z,7.63
2019-05-13T01:11:23.635Z,7.87
2019-05-13T01:16:29.114Z,7.86
2019-05-13T01:21:34.659Z,7.64
2019-05-13T01:26:39.735Z,7.27
2019-05-13T01:31:45.499Z,7.33
2019-05-13T01:36:50.858Z,7.31
2019-05-13T01:41:56.218Z,7.31
2019-05-13T01:47:01.205Z,7.36
2019-05-13T01:52:06.280Z,7.45
2019-05-13T01:57:14.134Z,7.43
2019-05-13T02:02:18.920Z,7.18
2019-05-13T02:07:24.462Z,7.00
2019-05-13T02:12:30.254Z,7.00
2019-05-13T02:17:35.681Z,7.12
2019-05-13T02:22:41.069Z,7.11
2019-05-13T02:27:46.117Z,7.06
2019-05-13T02:32:53.101Z,6.84
2019-05-13T02:38:14.621Z,6.73
2019-05-13T02:43:05.196Z,6.73
2019-05-13T02:48:12.645Z,6.91
2019-05-13T02:53:17.320Z,6.46
2019-05-13T02:58:24.388Z,6.53
2019-05-13T03:03:32.691Z,6.52
2019-05-13T03:08:46.142Z,6.34
2019-05-13T03:13:44.674Z,6.44
2019-05-13T03:18:52.332Z,6.43
2019-05-13T03:23:57.197Z,6.33
2019-05-13T03:29:02.983Z,6.18
2019-05-13T03:34:08.241Z,6.43
2019-05-13T03:39:16.448Z,6.36
2019-05-13T03:44:24.037Z,6.26
2019-05-13T03:49:32.856Z,6.20
2019-05-13T03:54:38.119Z,6.41
2019-05-13T03:59:44.018Z,6.23
2019-05-13T04:04:49.147Z,6.10
2019-05-13T04:09:54.849Z,6.22
2019-05-13T04:15:03.579Z,6.44
2019-05-13T04:20:12.370Z,6.39
2019-05-13T04:25:15.611Z,6.31
2019-05-13T04:30:22.343Z,6.68
2019-05-13T04:35:27.601Z,6.61
2019-05-13T04:40:33.381Z,6.53
2019-05-13T04:45:38.677Z,6.68
2019-05-13T04:50:44.430Z,6.80
2019-05-13T04:55:52.633Z,6.70
2019-05-13T05:01:08.807Z,7.02
2019-05-13T05:06:42.546Z,6.95
2019-05-13T05:12:23.206Z,7.03
2019-05-13T05:17:54.092Z,7.44
2019-05-13T05:23:31.960Z,7.75
2019-05-13T05:29:02.177Z,7.98
2019-05-13T05:34:46.009Z,8.18
2019-05-13T05:39:53.698Z,8.20
2019-05-13T05:45:02.732Z,8.43
2019-05-13T05:50:08.297Z,8.98
2019-05-13T05:55:13.669Z,9.00
2019-05-13T06:00:21.881Z,9.16
2019-05-13T06:05:27.497Z,9.28
2019-05-13T06:10:46.414Z,9.99
2019-05-13T06:15:41.935Z,10.61
2019-05-13T06:20:46.462Z,10.69
2019-05-13T06:25:52.848Z,11.16
2019-05-13T06:30:58.543Z,11.65
2019-05-13T06:36:04.437Z,11.55
2019-05-13T06:41:14.067Z,11.85
2019-05-13T06:46:16.996Z,11.91
2019-05-13T06:51:22.307Z,11.82
2019-05-13T06:56:28.334Z,12.13
2019-05-13T07:01:34.611Z,11.57
2019-05-13T07:06:41.769Z,12.00
2019-05-13T07:11:46.831Z,11.82
2019-05-13T07:16:52.591Z,11.33
2019-05-13T07:21:57.815Z,12.16
2019-05-13T07:27:02.883Z,12.58
2019-05-13T07:32:08.274Z,12.23
2019-05-13T07:37:14.145Z,12.53
2019-05-13T07:42:19.230Z,12.43
2019-05-13T07:47:24.874Z,13.59
2019-05-13T07:52:31.981Z,13.50
2019-05-13T07:57:37.518Z,13.96
2019-05-13T08:02:43.027Z,14.32
2019-05-13T08:07:48.152Z,13.60
2019-05-13T08:12:53.227Z,13.81
2019-05-13T08:18:01.807Z,13.57
2019-05-13T08:23:05.464Z,14.10
2019-05-13T08:28:12.289Z,14.49
2019-05-13T08:33:17.594Z,15.31
2019-05-13T08:38:23.074Z,14.50
2019-05-13T08:43:28.175Z,14.72
2019-05-13T08:48:33.589Z,14.75
2019-05-13T08:53:39.043Z,14.70
2019-05-13T08:58:44.127Z,14.28
2019-05-13T09:03:49.170Z,14.23
2019-05-13T09:08:54.756Z,13.73
2019-05-13T09:14:02.329Z,13.44
2019-05-13T09:19:07.770Z,13.99
2019-05-13T09:24:25.333Z,15.47
2019-05-13T09:29:19.451Z,16.06
2019-05-13T09:34:24.650Z,15.92
2019-05-13T09:39:32.078Z,14.79
2019-05-13T09:44:36.771Z,15.41
2019-05-13T09:49:42.326Z,15.55
2019-05-13T09:54:48.380Z,15.03
2019-05-13T09:59:53.522Z,14.41
2019-05-13T10:04:58.975Z,15.80
2019-05-13T10:10:04.749Z,16.06
2019-05-13T10:15:12.671Z,15.80
2019-05-13T10:20:24.223Z,16.40
2019-05-13T10:25:29.313Z,16.84
2019-05-13T10:30:34.900Z,16.05
2019-05-13T10:35:43.027Z,17.51
2019-05-13T10:40:48.568Z,16.34
2019-05-13T10:45:53.791Z,15.87
2019-05-13T10:51:02.266Z,16.76
2019-05-13T10:56:06.845Z,17.68
2019-05-13T11:01:12.279Z,18.36
2019-05-13T11:06:17.507Z,17.59
2019-05-13T11:11:22.971Z,17.44
2019-05-13T11:16:28.618Z,18.14
2019-05-13T11:21:33.838Z,18.30
2019-05-13T11:26:41.651Z,19.05
2019-05-13T11:31:46.610Z,19.55
2019-05-13T11:36:53.148Z,19.11
2019-05-13T11:42:02.064Z,19.24
2019-05-13T11:47:06.035Z,19.36
2019-05-13T11:52:12.113Z,18.18
2019-05-13T11:57:17.745Z,17.83
2019-05-13T12:02:23.477Z,17.49
2019-05-13T12:07:28.878Z,18.16
2019-05-13T12:12:34.813Z,17.75
2019-05-13T12:17:42.904Z,18.61
2019-05-13T12:22:47.047Z,19.44
2019-05-13T12:27:52.321Z,16.60
2019-05-13T12:32:58.332Z,17.12
2019-05-13T12:38:03.894Z,18.42
2019-05-13T12:43:12.607Z,18.49
2019-05-13T12:48:16.263Z,17.57
2019-05-13T12:53:22.321Z,18.95
2019-05-13T12:58:28.086Z,19.15
2019-05-13T13:03:33.180Z,17.32
2019-05-13T13:08:47.541Z,18.79
2019-05-13T13:13:58.629Z,18.93
2019-05-13T13:18:52.717Z,18.22
2019-05-13T13:23:58.519Z,16.95
2019-05-13T13:29:03.707Z,17.35
2019-05-13T13:34:13.551Z,18.08
2019-05-13T13:39:16.264Z,17.85
2019-05-13T13:44:24.667Z,17.27
2019-05-13T13:49:34.523Z,17.09
2019-05-13T13:54:36.258Z,17.66
2019-05-13T14:00:14.154Z,18.03
2019-05-13T14:04:53.646Z,18.52
2019-05-13T14:09:56.294Z,16.91
2019-05-13T14:15:02.125Z,16.12
2019-05-13T14:20:07.735Z,15.84
2019-05-13T14:25:13.702Z,16.74
2019-05-13T14:30:21.241Z,15.60
2019-05-13T14:35:26.338Z,16.46
2019-05-13T14:40:32.035Z,17.50
2019-05-13T14:45:37.084Z,17.67
2019-05-13T14:50:42.328Z,17.85
2019-05-13T14:55:48.189Z,16.75
2019-05-13T15:01:11.482Z,17.12
2019-05-13T15:06:01.538Z,17.68
2019-05-13T15:11:07.399Z,17.46
2019-05-13T15:16:12.942Z,17.81
2019-05-13T15:21:18.239Z,17.77
2019-05-13T15:26:23.453Z,17.38
2019-05-13T15:31:31.423Z,17.60
2019-05-13T15:36:36.217Z,17.54
2019-05-13T15:41:41.881Z,17.64
2019-05-13T15:46:47.648Z,17.36
2019-05-13T15:51:52.718Z,17.48
2019-05-13T15:56:58.217Z,17.55
2019-05-13T16:02:03.356Z,17.51
2019-05-13T16:07:08.945Z,17.46
2019-05-13T16:12:14.448Z,17.62
2019-05-13T16:17:30.647Z,17.45
2019-05-13T16:22:27.209Z,17.37
2019-05-13T16:27:32.986Z,16.75
2019-05-13T16:32:39.130Z,16.56
2019-05-13T16:37:44.506Z,16.52
2019-05-13T16:42:51.774Z,16.08
2019-05-13T16:47:59.834Z,16.50
2019-05-13T16:53:03.466Z,16.70
2019-05-13T16:58:08.914Z,16.31
2019-05-13T17:03:14.055Z,16.65
2019-05-13T17:08:19.940Z,16.14
2019-05-13T17:13:25.438Z,15.84
2019-05-13T17:18:32.471Z,15.91
2019-05-13T17:23:38.172Z,15.56
2019-05-13T17:28:43.235Z,15.37
2019-05-13T17:33:51.816Z,14.88
2019-05-13T17:38:56.912Z,14.70
2019-05-13T17:44:02.580Z,14.25
2019-05-13T17:49:08.033Z,13.89
2019-05-13T17:54:13.495Z,13.73
2019-05-13T17:59:19.054Z,13.19
2019-05-13T18:04:24.230Z,12.79
2019-05-13T18:09:31.798Z,12.67
2019-05-13T18:14:37.114Z,12.46
2019-05-13T18:19:42.428Z,12.35
2019-05-13T18:24:48.206Z,12.40
2019-05-13T18:29:53.768Z,12.10
2019-05-13T18:35:01.477Z,12.10
2019-05-13T18:40:06.726Z,11.48
2019-05-13T18:45:12.603Z,11.38
2019-05-13T18:50:17.862Z,11.30
2019-05-13T18:55:23.010Z,10.89
2019-05-13T19:00:28.471Z,10.94
2019-05-13T19:05:33.877Z,10.99
2019-05-13T19:10:38.971Z,10.80
2019-05-13T19:15:44.271Z,10.62
2019-05-13T19:20:51.315Z,10.51
2019-05-13T19:25:56.362Z,10.52
2019-05-13T19:31:02.168Z,10.33
2019-05-13T19:36:07.933Z,10.28
2019-05-13T19:41:13.381Z,10.20
2019-05-13T19:46:19.154Z,10.38
2019-05-13T19:51:28.307Z,10.18
2019-05-13T19:56:32.571Z,10.07
2019-05-13T20:01:38.404Z,10.21
2019-05-13T20:06:43.546Z,10.03
2019-05-13T20:11:54.999Z,9.98
2019-05-13T20:16:56.568Z,9.79
2019-05-13T20:22:02.350Z,9.68
2019-05-13T20:27:07.909Z,9.75
2019-05-13T20:32:13.189Z,9.45
2019-05-13T20:37:18.286Z,9.32
2019-05-13T20:42:23.970Z,9.08
2019-05-13T20:47:29.698Z,8.97
2019-05-13T20:52:35.013Z,8.91
2019-05-13T20:57:41.717Z,8.78
2019-05-13T21:02:47.209Z,8.81
2019-05-13T21:07:53.274Z,8.81
2019-05-13T21:12:59.053Z,8.54
2019-05-13T21:18:04.277Z,8.58
2019-05-13T21:23:11.299Z,8.60
2019-05-13T21:28:16.508Z,8.47
2019-05-13T21:33:22.257Z,8.15
2019-05-13T21:38:27.560Z,8.18
2019-05-13T21:43:32.919Z,8.20
2019-05-13T21:48:37.977Z,8.00
2019-05-13T21:53:43.130Z,7.93
2019-05-13T21:58:48.274Z,7.85
2019-05-13T22:03:53.545Z,7.81
2019-05-13T22:08:58.824Z,7.62
2019-05-13T22:14:04.234Z,7.53
2019-05-13T22:19:09.381Z,7.58
2019-05-13T22:24:14.465Z,7.60
2019-05-13T22:29:22.963Z,7.57
2019-05-13T22:34:27.762Z,7.38
2019-05-13T22:39:34.829Z,7.45
2019-05-13T22:44:41.779Z,7.17
2019-05-13T22:49:47.189Z,7.10
2019-05-13T22:54:52.567Z,7.28
2019-05-13T22:59:58.332Z,7.09
2019-05-13T23:05:03.511Z,7.07
2019-05-13T23:10:11.621Z,6.93
2019-05-13T23:15:16.545Z,6.82
2019-05-13T23:20:21.893Z,6.97
2019-05-13T23:25:27.698Z,7.01
2019-05-13T23:30:33.559Z,6.97
2019-05-13T23:35:41.548Z,6.89
2019-05-13T23:40:45.920Z,6.92
2019-05-13T23:45:51.395Z,6.78
2019-05-13T23:50:56.444Z,6.66
2019-05-13T23:56:02.149Z,6.78
